createdAt,value
2018-09-16T00:02:12.018Z,10.50
2018-09-16T00:04:40.849Z,10.90
2018-09-16T00:09:38.347Z,10.60
2018-09-16T00:12:07.464Z,10.90
2018-09-16T00:14:36.313Z,10.70
2018-09-16T00:17:05.293Z,11.00
2018-09-16T00:27:01.011Z,10.80
2018-09-16T00:29:29.848Z,11.10
2018-09-16T00:32:04.075Z,10.80
2018-09-16T00:34:32.918Z,10.40
2018-09-16T00:37:01.911Z,10.70
2018-09-16T00:39:30.745Z,10.50
2018-09-16T00:41:59.695Z,10.60
2018-09-16T00:44:28.538Z,10.70
2018-09-16T00:46:57.456Z,10.20
2018-09-16T00:51:54.887Z,10.50
2018-09-16T00:56:53.290Z,11.00
2018-09-16T01:01:50.824Z,10.70
2018-09-16T01:11:45.769Z,10.50
2018-09-16T01:14:14.620Z,10.40
2018-09-16T01:21:41.646Z,10.10
2018-09-16T01:26:39.052Z,10.20
2018-09-16T01:29:07.888Z,10.00
2018-09-16T01:31:38.852Z,10.10
2018-09-16T01:36:36.188Z,9.70
2018-09-16T01:39:06.987Z,9.70
2018-09-16T01:41:37.240Z,10.00
2018-09-16T01:44:06.034Z,10.00
2018-09-16T01:54:01.415Z,9.70
2018-09-16T02:01:29.362Z,10.00
2018-09-16T02:08:55.230Z,9.70
2018-09-16T02:11:25.185Z,9.20
2018-09-16T02:16:22.551Z,9.40
2018-09-16T02:23:49.608Z,10.00
2018-09-16T02:26:18.552Z,9.80
2018-09-16T02:33:44.657Z,9.90
2018-09-16T02:36:13.650Z,9.60
2018-09-16T02:38:42.739Z,9.50
2018-09-16T02:41:11.678Z,9.50
2018-09-16T02:43:40.526Z,10.00
2018-09-16T02:46:09.498Z,9.70
2018-09-16T02:48:38.326Z,9.70
2018-09-16T02:51:07.322Z,9.60
2018-09-16T02:53:36.177Z,9.90
2018-09-16T02:56:09.419Z,10.10
2018-09-16T02:58:38.329Z,10.00
2018-09-16T03:01:07.341Z,9.80
2018-09-16T03:03:36.227Z,9.90
2018-09-16T03:06:05.406Z,9.80
2018-09-16T03:11:02.901Z,9.90
2018-09-16T03:23:25.952Z,9.90
2018-09-16T03:25:55.049Z,9.50
2018-09-16T03:33:20.925Z,10.10
2018-09-16T03:35:49.913Z,9.70
2018-09-16T03:40:47.374Z,10.10
2018-09-16T03:43:16.237Z,9.50
2018-09-16T03:48:14.950Z,10.00
2018-09-16T03:50:43.954Z,9.70
2018-09-16T03:55:41.465Z,10.00
2018-09-16T04:00:38.961Z,9.80
2018-09-16T04:03:07.860Z,10.20
2018-09-16T04:05:36.926Z,9.80
2018-09-16T04:08:06.248Z,9.60
2018-09-16T04:10:35.335Z,9.50
2018-09-16T04:15:34.759Z,10.30
2018-09-16T04:18:03.581Z,10.10
2018-09-16T04:20:33.660Z,10.90
2018-09-16T04:25:31.182Z,10.50
2018-09-16T04:28:00.049Z,10.10
2018-09-16T04:30:29.450Z,10.20
2018-09-16T04:32:58.320Z,10.00
2018-09-16T04:35:27.370Z,10.70
2018-09-16T04:37:56.232Z,10.30
2018-09-16T04:42:53.788Z,10.40
2018-09-16T04:47:51.159Z,10.00
2018-09-16T04:50:20.256Z,10.30
2018-09-16T04:52:49.193Z,10.30
2018-09-16T04:55:20.288Z,10.00
2018-09-16T05:00:17.744Z,11.20
2018-09-16T05:05:16.213Z,10.30
2018-09-16T05:07:45.055Z,10.30
2018-09-16T05:10:14.698Z,10.50
2018-09-16T05:15:12.163Z,10.50
2018-09-16T05:17:41.022Z,10.50
2018-09-16T05:20:10.090Z,10.50
2018-09-16T05:22:38.999Z,10.40
2018-09-16T05:25:08.137Z,10.60
2018-09-16T05:27:37.012Z,10.80
2018-09-16T05:30:06.536Z,10.90
2018-09-16T05:32:35.416Z,11.00
2018-09-16T05:35:04.612Z,11.80
2018-09-16T05:37:33.652Z,11.00
2018-09-16T05:42:31.469Z,11.50
2018-09-16T05:45:04.768Z,11.60
2018-09-16T05:47:33.666Z,11.40
2018-09-16T05:50:02.696Z,11.30
2018-09-16T05:55:00.193Z,11.70
2018-09-16T05:57:29.038Z,11.40
2018-09-16T05:59:58.032Z,11.60
2018-09-16T06:02:26.949Z,12.00
2018-09-16T06:04:56.237Z,11.60
2018-09-16T06:07:25.133Z,11.80
2018-09-16T06:09:54.146Z,11.80
2018-09-16T06:12:22.987Z,12.30
2018-09-16T06:14:51.995Z,12.10
2018-09-16T06:17:20.940Z,12.10
2018-09-16T06:19:50.024Z,12.50
2018-09-16T06:22:18.897Z,12.60
2018-09-16T06:24:47.972Z,12.70
2018-09-16T06:27:16.824Z,12.70
2018-09-16T06:29:45.865Z,12.90
2018-09-16T06:32:14.814Z,13.20
2018-09-16T06:34:43.902Z,13.70
2018-09-16T06:37:13.125Z,13.30
2018-09-16T06:39:45.679Z,13.60
2018-09-16T06:44:43.150Z,14.30
2018-09-16T06:47:12.021Z,14.70
2018-09-16T06:49:41.125Z,14.50
2018-09-16T06:52:10.109Z,14.50
2018-09-16T06:54:40.078Z,14.70
2018-09-16T06:57:08.909Z,15.00
2018-09-16T06:59:37.894Z,15.60
2018-09-16T07:02:06.858Z,14.70
2018-09-16T07:07:06.375Z,14.60
2018-09-16T07:12:03.850Z,15.00
2018-09-16T07:14:35.042Z,15.20
2018-09-16T07:17:03.882Z,15.20
2018-09-16T07:19:32.891Z,15.80
2018-09-16T07:22:01.737Z,15.60
2018-09-16T07:24:31.759Z,15.30
2018-09-16T07:27:00.659Z,15.40
2018-09-16T07:32:00.550Z,15.90
2018-09-16T07:34:32.495Z,16.50
2018-09-16T07:39:30.090Z,16.70
2018-09-16T07:41:58.963Z,16.40
2018-09-16T07:44:28.969Z,16.30
2018-09-16T07:46:57.966Z,16.80
2018-09-16T07:49:27.966Z,16.90
2018-09-16T07:51:56.845Z,16.60
2018-09-16T07:56:55.492Z,17.40
2018-09-16T07:59:25.562Z,17.30
2018-09-16T08:01:55.193Z,17.60
2018-09-16T08:04:24.211Z,17.90
2018-09-16T08:06:53.129Z,17.60
2018-09-16T08:09:22.159Z,17.60
2018-09-16T08:11:50.981Z,18.30
2018-09-16T08:14:21.060Z,18.10
2018-09-16T08:16:49.949Z,18.30
2018-09-16T08:19:18.929Z,18.00
2018-09-16T08:21:47.853Z,18.20
2018-09-16T08:24:16.834Z,18.70
2018-09-16T08:26:45.800Z,18.60
2018-09-16T08:29:19.845Z,18.90
2018-09-16T08:31:48.716Z,18.60
2018-09-16T08:36:46.305Z,19.30
2018-09-16T08:39:15.358Z,19.00
2018-09-16T08:41:44.239Z,19.40
2018-09-16T08:46:41.887Z,19.30
2018-09-16T08:49:10.878Z,19.70
2018-09-16T08:51:39.784Z,19.30
2018-09-16T08:56:37.244Z,19.70
2018-09-16T08:59:06.258Z,20.00
2018-09-16T09:04:11.573Z,19.80
2018-09-16T09:06:40.466Z,19.60
2018-09-16T09:09:11.221Z,20.10
2018-09-16T09:11:40.682Z,20.40
2018-09-16T09:19:09.319Z,19.70
2018-09-16T09:21:38.166Z,20.70
2018-09-16T09:24:09.327Z,20.30
2018-09-16T09:26:38.330Z,20.30
2018-09-16T09:29:07.386Z,20.40
2018-09-16T09:31:36.805Z,20.50
2018-09-16T09:34:07.424Z,20.90
2018-09-16T09:41:41.545Z,20.60
2018-09-16T09:46:44.182Z,21.10
2018-09-16T09:49:14.895Z,21.70
2018-09-16T09:51:43.761Z,21.60
2018-09-16T09:54:12.959Z,21.10
2018-09-16T09:56:42.549Z,21.60
2018-09-16T09:59:16.064Z,21.00
2018-09-16T10:01:44.891Z,21.40
2018-09-16T10:04:15.869Z,21.40
2018-09-16T10:06:45.324Z,22.30
2018-09-16T10:09:21.291Z,22.30
2018-09-16T10:11:50.146Z,21.80
2018-09-16T10:14:20.142Z,21.80
2018-09-16T10:19:18.750Z,21.80
2018-09-16T10:21:47.634Z,22.50
2018-09-16T10:24:17.749Z,22.30
2018-09-16T10:26:46.652Z,22.10
2018-09-16T10:31:49.421Z,22.50
2018-09-16T10:34:18.407Z,22.80
2018-09-16T10:39:18.343Z,22.70
2018-09-16T10:41:47.432Z,22.70
2018-09-16T10:44:16.451Z,22.40
2018-09-16T10:49:14.129Z,22.80
2018-09-16T10:51:42.976Z,23.00
2018-09-16T10:56:51.565Z,23.20
2018-09-16T10:59:20.515Z,23.20
2018-09-16T11:01:49.788Z,23.10
2018-09-16T11:04:18.709Z,24.00
2018-09-16T11:11:46.518Z,23.60
2018-09-16T11:14:15.527Z,23.90
2018-09-16T11:16:44.337Z,23.40
2018-09-16T11:19:13.284Z,23.60
2018-09-16T11:21:42.191Z,24.00
2018-09-16T11:24:12.731Z,23.90
2018-09-16T11:26:41.849Z,23.80
2018-09-16T11:29:14.313Z,24.30
2018-09-16T11:31:43.584Z,23.90
2018-09-16T11:34:13.666Z,23.70
2018-09-16T11:39:12.429Z,23.20
2018-09-16T11:41:41.310Z,24.30
2018-09-16T11:44:10.786Z,23.50
2018-09-16T11:46:41.244Z,23.30
2018-09-16T11:49:10.760Z,23.90
2018-09-16T11:51:40.787Z,24.30
2018-09-16T11:54:18.233Z,24.50
2018-09-16T11:56:47.253Z,24.90
2018-09-16T11:59:17.848Z,24.40
2018-09-16T12:01:48.184Z,24.10
2018-09-16T12:04:22.802Z,24.20
2018-09-16T12:06:52.355Z,24.40
2018-09-16T12:09:22.121Z,23.80
2018-09-16T12:14:19.738Z,25.50
2018-09-16T12:19:17.171Z,24.50
2018-09-16T12:21:48.197Z,24.50
2018-09-16T12:24:17.140Z,24.60
2018-09-16T12:26:47.122Z,24.30
2018-09-16T12:29:16.307Z,24.40
2018-09-16T12:31:45.209Z,24.40
2018-09-16T12:34:14.236Z,24.80
2018-09-16T12:36:43.206Z,24.20
2018-09-16T12:39:13.950Z,24.10
2018-09-16T12:41:43.289Z,23.50
2018-09-16T12:44:14.303Z,23.50
2018-09-16T12:46:43.194Z,24.60
2018-09-16T12:49:12.249Z,24.50
2018-09-16T12:51:41.143Z,24.30
2018-09-16T12:54:10.159Z,24.70
2018-09-16T12:59:07.629Z,24.00
2018-09-16T13:01:38.596Z,25.40
2018-09-16T13:04:07.757Z,24.80
2018-09-16T13:06:36.715Z,24.50
2018-09-16T13:09:08.694Z,24.70
2018-09-16T13:11:37.690Z,25.30
2018-09-16T13:14:08.208Z,26.00
2018-09-16T13:19:05.641Z,25.30
2018-09-16T13:21:34.557Z,25.40
2018-09-16T13:29:04.027Z,25.50
2018-09-16T13:31:33.180Z,24.50
2018-09-16T13:34:03.118Z,25.00
2018-09-16T13:36:32.020Z,25.00
2018-09-16T13:39:00.972Z,24.60
2018-09-16T13:41:29.853Z,25.80
2018-09-16T13:43:58.980Z,25.70
2018-09-16T13:48:56.444Z,26.10
2018-09-16T13:53:54.071Z,25.90
2018-09-16T13:58:51.807Z,26.10
2018-09-16T14:01:20.700Z,25.70
2018-09-16T14:03:49.708Z,25.60
2018-09-16T14:06:18.576Z,26.10
2018-09-16T14:08:47.621Z,26.30
2018-09-16T14:11:16.875Z,26.10
2018-09-16T14:16:14.676Z,24.80
2018-09-16T14:23:42.791Z,25.20
2018-09-16T14:28:41.672Z,24.90
2018-09-16T14:38:36.405Z,24.40
2018-09-16T14:46:06.475Z,24.20
2018-09-16T14:51:08.863Z,23.80
2018-09-16T14:53:37.921Z,23.00
2018-09-16T14:56:06.815Z,23.60
2018-09-16T15:01:04.377Z,24.30
2018-09-16T15:03:37.384Z,23.60
2018-09-16T15:08:34.982Z,23.90
2018-09-16T15:13:34.809Z,24.10
2018-09-16T15:16:03.810Z,24.40
2018-09-16T15:18:32.874Z,23.90
2018-09-16T15:21:01.801Z,24.50
2018-09-16T15:23:30.789Z,24.50
2018-09-16T15:25:59.649Z,25.50
2018-09-16T15:28:28.724Z,26.20
2018-09-16T15:30:57.580Z,26.10
2018-09-16T15:35:55.038Z,26.50
2018-09-16T15:38:24.016Z,26.70
2018-09-16T15:43:21.504Z,27.20
2018-09-16T15:48:19.144Z,28.50
2018-09-16T15:50:47.995Z,27.10
2018-09-16T15:55:45.498Z,26.70
2018-09-16T16:05:42.165Z,25.90
2018-09-16T16:08:13.181Z,25.70
2018-09-16T16:10:42.072Z,25.20
2018-09-16T16:13:11.080Z,24.70
2018-09-16T16:15:39.975Z,24.00
2018-09-16T16:18:14.182Z,24.00
2018-09-16T16:23:11.608Z,23.20
2018-09-16T16:25:40.552Z,22.60
2018-09-16T16:31:08.680Z,22.80
2018-09-16T16:33:37.749Z,22.90
2018-09-16T16:36:06.654Z,22.80
2018-09-16T16:38:35.706Z,22.50
2018-09-16T16:43:33.291Z,22.10
2018-09-16T16:46:02.147Z,21.90
2018-09-16T16:48:31.422Z,22.30
2018-09-16T16:51:01.333Z,22.20
2018-09-16T16:53:30.369Z,22.30
2018-09-16T16:55:59.296Z,22.20
2018-09-16T16:58:30.511Z,21.80
2018-09-16T17:01:01.481Z,21.90
2018-09-16T17:05:59.088Z,22.00
2018-09-16T17:08:30.087Z,21.50
2018-09-16T17:13:31.160Z,21.40
2018-09-16T17:20:58.886Z,21.90
2018-09-16T17:23:27.831Z,21.40
2018-09-16T17:35:51.936Z,21.00
2018-09-16T17:38:20.851Z,20.30
2018-09-16T17:40:53.891Z,20.30
2018-09-16T17:43:22.876Z,20.20
2018-09-16T17:45:52.830Z,20.20
2018-09-16T17:48:21.721Z,20.30
2018-09-16T17:53:19.288Z,20.20
2018-09-16T17:55:48.357Z,19.90
2018-09-16T17:58:17.238Z,20.40
2018-09-16T18:03:14.885Z,19.80
2018-09-16T18:05:44.789Z,19.70
2018-09-16T18:08:14.281Z,19.60
2018-09-16T18:18:12.526Z,19.50
2018-09-16T18:20:41.529Z,19.20
2018-09-16T18:33:07.454Z,18.80
2018-09-16T18:38:07.566Z,18.50
2018-09-16T18:50:30.970Z,17.80
2018-09-16T19:00:36.972Z,18.00
2018-09-16T19:03:05.876Z,18.10
2018-09-16T19:10:33.735Z,17.80
2018-09-16T19:15:31.279Z,17.30
2018-09-16T19:20:28.748Z,17.60
2018-09-16T19:22:57.599Z,17.60
2018-09-16T19:25:27.756Z,17.50
2018-09-16T19:27:56.553Z,17.20
2018-09-16T19:32:54.116Z,17.50
2018-09-16T19:35:23.167Z,17.60
2018-09-16T19:37:52.060Z,17.50
2018-09-16T19:45:19.172Z,17.20
2018-09-16T19:47:48.347Z,17.50
2018-09-16T19:55:17.839Z,17.30
2018-09-16T20:00:15.844Z,17.20
2018-09-16T20:02:44.752Z,17.00
2018-09-16T20:07:42.300Z,17.00
2018-09-16T20:10:11.366Z,17.20
2018-09-16T20:12:40.229Z,17.00
2018-09-16T20:15:10.275Z,17.00
2018-09-16T20:17:39.202Z,16.90
2018-09-16T20:20:08.284Z,16.70
2018-09-16T20:22:37.156Z,16.90
2018-09-16T20:27:34.599Z,17.10
2018-09-16T20:44:58.926Z,16.60
2018-09-16T20:47:27.778Z,16.70
2018-09-16T20:49:57.164Z,16.50
2018-09-16T20:52:26.167Z,16.30
2018-09-16T20:57:23.693Z,16.00
2018-09-16T20:59:52.716Z,16.20
2018-09-16T21:04:51.497Z,16.10
2018-09-16T21:12:22.151Z,15.60
2018-09-16T21:14:51.161Z,15.90
2018-09-16T21:17:20.035Z,15.80
2018-09-16T21:19:49.078Z,15.70
2018-09-16T21:27:15.919Z,16.60
2018-09-16T21:29:44.946Z,16.70
2018-09-16T21:32:13.890Z,15.50
2018-09-16T21:34:43.826Z,15.80
2018-09-16T21:37:12.697Z,16.10
2018-09-16T21:39:41.724Z,15.50
2018-09-16T21:42:10.644Z,15.70
2018-09-16T21:44:40.653Z,15.20
2018-09-16T21:47:09.583Z,15.50
2018-09-16T21:49:38.702Z,14.80
2018-09-16T21:57:04.623Z,14.90
2018-09-16T21:59:35.607Z,14.80
2018-09-16T22:04:33.076Z,14.40
2018-09-16T22:09:30.544Z,14.30
2018-09-16T22:11:59.485Z,14.20
2018-09-16T22:16:56.953Z,14.00
2018-09-16T22:26:59.254Z,13.70
2018-09-16T22:29:28.215Z,13.50
2018-09-16T22:31:57.127Z,13.40
2018-09-16T22:41:53.487Z,13.30
2018-09-16T22:44:24.491Z,13.00
2018-09-16T22:46:53.323Z,13.10
2018-09-16T22:49:22.327Z,13.10
2018-09-16T22:51:51.182Z,13.00
2018-09-16T22:56:48.612Z,12.90
2018-09-16T22:59:18.550Z,12.60
2018-09-16T23:01:47.426Z,12.70
2018-09-16T23:04:16.348Z,12.30
2018-09-16T23:09:14.537Z,12.60
2018-09-16T23:11:44.804Z,12.40
2018-09-16T23:21:39.945Z,12.60
2018-09-16T23:24:15.344Z,12.10
2018-09-16T23:26:44.262Z,12.30
2018-09-16T23:31:47.536Z,12.30
2018-09-16T23:34:19.640Z,12.30
2018-09-16T23:39:17.190Z,12.20
2018-09-16T23:41:46.051Z,12.30
2018-09-16T23:49:12.126Z,11.90
2018-09-16T23:59:07.641Z,11.90
